TXG2402 MDSD-MUHA
Flight info
| Callsign | TXG2402 |
|---|---|
| Flight time | 1h 57m |
| Altitude | 38000 |
| Route | RETAK DCT ALBBE M348 MEDKO UM348 UVA |
| Aircraft | B738/M-SDE2E3FGHIRWXY/LB1 |
Departure
| Time | 2026-05-08 17:00 |
|---|---|
| Airport | Las Américas International Airport (MDSD) |
Arrival
| Time | 2026-05-08 18:57 |
|---|---|
| Airport | José Martí International Airport (MUHA) |
| Time | Latitude | Longitude | Altitude | Speed | Heading |
|---|---|---|---|---|---|
| 2026-05-08 16:40 | 18.43675 | -69.67690 | 67 ft | 0 kts | 251° |
| 2026-05-08 16:50 | 18.43677 | -69.67687 | 58 ft | 2 kts | 251° |
| 2026-05-08 16:51 | 18.43682 | -69.67670 | 60 ft | 2 kts | 256° |
| 2026-05-08 16:51 | 18.43684 | -69.67653 | 60 ft | 2 kts | 246° |
| 2026-05-08 16:51 | 18.43685 | -69.67638 | 60 ft | 2 kts | 294° |
| 2026-05-08 16:51 | 18.43681 | -69.67630 | 60 ft | 2 kts | 175° |
| 2026-05-08 16:52 | 18.43686 | -69.67632 | 59 ft | 0 kts | 339° |
| 2026-05-08 16:54 | 18.43688 | -69.67634 | 67 ft | 1 kts | 338° |
| 2026-05-08 16:55 | 18.43712 | -69.67640 | 59 ft | 6 kts | 346° |
| 2026-05-08 16:55 | 18.43770 | -69.67657 | 65 ft | 11 kts | 339° |
| 2026-05-08 16:55 | 18.43858 | -69.67693 | 62 ft | 16 kts | 340° |
| 2026-05-08 16:55 | 18.43975 | -69.67739 | 63 ft | 20 kts | 339° |
| 2026-05-08 16:56 | 18.44092 | -69.67786 | 68 ft | 13 kts | 346° |
| 2026-05-08 16:56 | 18.44148 | -69.67719 | 65 ft | 15 kts | 72° |
| 2026-05-08 16:56 | 18.44186 | -69.67610 | 61 ft | 18 kts | 69° |
| 2026-05-08 16:56 | 18.44174 | -69.67532 | 68 ft | 1 kts | 135° |
| 2026-05-08 16:57 | 18.44166 | -69.67527 | 68 ft | 2 kts | 131° |
| 2026-05-08 16:57 | 18.44175 | -69.67509 | 68 ft | 4 kts | 52° |
| 2026-05-08 16:57 | 18.44209 | -69.67483 | 62 ft | 8 kts | 32° |
| 2026-05-08 16:57 | 18.44272 | -69.67452 | 68 ft | 12 kts | 25° |
| 2026-05-08 16:58 | 18.44330 | -69.67407 | 60 ft | 6 kts | 94° |
| 2026-05-08 16:58 | 18.44304 | -69.67380 | 64 ft | 0 kts | 161° |
| 2026-05-08 16:59 | 18.44301 | -69.67379 | 61 ft | 8 kts | 161° |
| 2026-05-08 16:59 | 18.43977 | -69.67260 | 66 ft | 89 kts | 161° |
| 2026-05-08 16:59 | 18.43173 | -69.66962 | 72 ft | 154 kts | 159° |
| 2026-05-08 16:59 | 18.42059 | -69.66527 | 490 ft | 181 kts | 160° |
| 2026-05-08 17:00 | 18.40879 | -69.66024 | 1441 ft | 181 kts | 156° |
| 2026-05-08 17:00 | 18.39679 | -69.65493 | 2081 ft | 201 kts | 160° |
| 2026-05-08 17:00 | 18.38201 | -69.65323 | 2280 ft | 230 kts | 187° |
| 2026-05-08 17:00 | 18.36721 | -69.66137 | 2507 ft | 258 kts | 224° |
| 2026-05-08 17:01 | 18.35742 | -69.67782 | 3026 ft | 274 kts | 248° |
| 2026-05-08 17:01 | 18.35152 | -69.69684 | 3849 ft | 273 kts | 253° |
| 2026-05-08 17:01 | 18.34611 | -69.71630 | 4515 ft | 279 kts | 253° |
| 2026-05-08 17:01 | 18.34224 | -69.73617 | 5141 ft | 281 kts | 273° |
| 2026-05-08 17:02 | 18.34621 | -69.75242 | 5658 ft | 284 kts | 301° |
| 2026-05-08 17:02 | 18.35881 | -69.76844 | 6401 ft | 285 kts | 313° |
| 2026-05-08 17:02 | 18.37235 | -69.78385 | 7092 ft | 289 kts | 314° |
| 2026-05-08 17:02 | 18.38609 | -69.79951 | 7781 ft | 291 kts | 314° |
| 2026-05-08 17:03 | 18.39975 | -69.81519 | 8588 ft | 290 kts | 313° |
| 2026-05-08 17:03 | 18.41339 | -69.83097 | 9317 ft | 293 kts | 314° |
| 2026-05-08 17:03 | 18.42713 | -69.84694 | 9994 ft | 296 kts | 313° |
| 2026-05-08 17:03 | 18.44111 | -69.86329 | 10400 ft | 310 kts | 313° |
| 2026-05-08 17:04 | 18.45601 | -69.88076 | 10544 ft | 331 kts | 314° |
| 2026-05-08 17:04 | 18.47183 | -69.89935 | 10706 ft | 350 kts | 313° |
| 2026-05-08 17:04 | 18.48837 | -69.91886 | 11001 ft | 362 kts | 313° |
| 2026-05-08 17:04 | 18.50522 | -69.93881 | 11568 ft | 365 kts | 314° |
| 2026-05-08 17:05 | 18.52210 | -69.95882 | 12222 ft | 366 kts | 314° |
| 2026-05-08 17:05 | 18.53906 | -69.97894 | 12795 ft | 370 kts | 314° |
| 2026-05-08 17:05 | 18.55623 | -69.99933 | 13363 ft | 373 kts | 313° |
| 2026-05-08 17:05 | 18.57353 | -70.01987 | 13934 ft | 376 kts | 314° |
| 2026-05-08 17:06 | 18.59095 | -70.04055 | 14471 ft | 379 kts | 314° |
| 2026-05-08 17:06 | 18.60850 | -70.06139 | 15015 ft | 382 kts | 314° |
| 2026-05-08 17:06 | 18.62619 | -70.08241 | 15572 ft | 384 kts | 314° |
| 2026-05-08 17:06 | 18.64400 | -70.10357 | 16129 ft | 387 kts | 314° |
| 2026-05-08 17:07 | 18.66192 | -70.12489 | 16624 ft | 389 kts | 314° |
| 2026-05-08 17:07 | 18.67991 | -70.14631 | 17016 ft | 392 kts | 314° |
| 2026-05-08 17:07 | 18.69807 | -70.16789 | 17497 ft | 395 kts | 314° |
| 2026-05-08 17:07 | 18.71636 | -70.18963 | 17987 ft | 398 kts | 314° |
| 2026-05-08 17:08 | 18.73472 | -70.21147 | 18539 ft | 398 kts | 314° |
| 2026-05-08 17:08 | 18.75315 | -70.23343 | 18979 ft | 401 kts | 314° |
| 2026-05-08 17:08 | 18.77170 | -70.25553 | 19402 ft | 403 kts | 314° |
| 2026-05-08 17:08 | 18.79035 | -70.27776 | 19829 ft | 406 kts | 314° |
| 2026-05-08 17:09 | 18.80911 | -70.30012 | 20262 ft | 408 kts | 314° |
| 2026-05-08 17:09 | 18.82803 | -70.32268 | 20630 ft | 412 kts | 314° |
| 2026-05-08 17:09 | 18.84704 | -70.34537 | 21070 ft | 414 kts | 314° |
| 2026-05-08 17:09 | 18.86615 | -70.36819 | 21481 ft | 416 kts | 315° |
| 2026-05-08 17:10 | 18.88538 | -70.39115 | 21877 ft | 418 kts | 315° |
| 2026-05-08 17:10 | 18.90471 | -70.41424 | 22261 ft | 421 kts | 315° |
| 2026-05-08 17:10 | 18.92416 | -70.43748 | 22633 ft | 423 kts | 315° |
| 2026-05-08 17:10 | 18.94371 | -70.46084 | 23000 ft | 426 kts | 315° |
| 2026-05-08 17:11 | 18.96336 | -70.48435 | 23384 ft | 428 kts | 315° |
| 2026-05-08 17:11 | 18.98310 | -70.50796 | 23713 ft | 430 kts | 315° |
| 2026-05-08 17:11 | 19.00295 | -70.53172 | 24001 ft | 432 kts | 315° |
| 2026-05-08 17:11 | 19.02262 | -70.55527 | 24280 ft | 434 kts | 314° |
| 2026-05-08 17:12 | 19.04288 | -70.57954 | 24576 ft | 436 kts | 314° |
| 2026-05-08 17:12 | 19.06268 | -70.60327 | 24858 ft | 437 kts | 314° |
| 2026-05-08 17:12 | 19.08287 | -70.62746 | 25161 ft | 439 kts | 314° |
| 2026-05-08 17:12 | 19.10310 | -70.65172 | 25489 ft | 440 kts | 314° |
| 2026-05-08 17:13 | 19.12335 | -70.67602 | 25793 ft | 441 kts | 314° |
| 2026-05-08 17:13 | 19.14368 | -70.70041 | 26062 ft | 443 kts | 314° |
| 2026-05-08 17:13 | 19.16412 | -70.72495 | 26317 ft | 446 kts | 314° |
| 2026-05-08 17:13 | 19.18465 | -70.74961 | 26581 ft | 448 kts | 314° |
| 2026-05-08 17:14 | 19.20529 | -70.77441 | 26876 ft | 449 kts | 314° |
| 2026-05-08 17:14 | 19.22596 | -70.79926 | 27161 ft | 451 kts | 314° |
| 2026-05-08 17:14 | 19.24668 | -70.82418 | 27433 ft | 452 kts | 314° |
| 2026-05-08 17:14 | 19.26752 | -70.84924 | 27696 ft | 454 kts | 314° |
| 2026-05-08 17:15 | 19.28841 | -70.87439 | 27940 ft | 456 kts | 314° |
| 2026-05-08 17:15 | 19.30941 | -70.89967 | 28168 ft | 458 kts | 313° |
| 2026-05-08 17:15 | 19.33047 | -70.92504 | 28404 ft | 459 kts | 313° |
| 2026-05-08 17:15 | 19.35161 | -70.95052 | 28644 ft | 461 kts | 313° |
| 2026-05-08 17:16 | 19.37281 | -70.97608 | 28870 ft | 463 kts | 313° |
| 2026-05-08 17:16 | 19.39409 | -71.00174 | 29102 ft | 465 kts | 313° |
| 2026-05-08 17:16 | 19.41545 | -71.02752 | 29328 ft | 466 kts | 313° |
| 2026-05-08 17:16 | 19.43686 | -71.05337 | 29545 ft | 468 kts | 313° |
| 2026-05-08 17:17 | 19.45836 | -71.07933 | 29754 ft | 469 kts | 313° |
| 2026-05-08 17:17 | 19.47982 | -71.10526 | 30096 ft | 467 kts | 313° |
| 2026-05-08 17:17 | 19.50119 | -71.13110 | 30424 ft | 465 kts | 313° |
| 2026-05-08 17:17 | 19.52247 | -71.15685 | 30703 ft | 464 kts | 313° |
| 2026-05-08 17:18 | 19.54373 | -71.18257 | 30956 ft | 464 kts | 313° |
| 2026-05-08 17:18 | 19.56499 | -71.20830 | 31240 ft | 463 kts | 313° |
| 2026-05-08 17:18 | 19.58620 | -71.23397 | 31550 ft | 462 kts | 313° |
| 2026-05-08 17:18 | 19.60732 | -71.25957 | 31857 ft | 461 kts | 313° |
| 2026-05-08 17:19 | 19.62843 | -71.28514 | 32130 ft | 460 kts | 313° |
| 2026-05-08 17:19 | 19.64948 | -71.31067 | 32405 ft | 460 kts | 313° |
| 2026-05-08 17:19 | 19.67053 | -71.33619 | 32708 ft | 459 kts | 312° |
| 2026-05-08 17:19 | 19.69150 | -71.36164 | 33015 ft | 458 kts | 312° |
| 2026-05-08 17:20 | 19.71242 | -71.38704 | 33307 ft | 457 kts | 312° |
| 2026-05-08 17:20 | 19.73331 | -71.41241 | 33607 ft | 456 kts | 312° |
| 2026-05-08 17:20 | 19.75419 | -71.43778 | 33903 ft | 455 kts | 312° |
| 2026-05-08 17:20 | 19.77499 | -71.46307 | 34168 ft | 454 kts | 312° |
| 2026-05-08 17:21 | 19.79577 | -71.48833 | 34402 ft | 454 kts | 312° |
| 2026-05-08 17:21 | 19.81653 | -71.51359 | 34639 ft | 454 kts | 312° |
| 2026-05-08 17:21 | 19.83720 | -71.53875 | 35003 ft | 450 kts | 312° |
| 2026-05-08 17:21 | 19.85765 | -71.56365 | 35334 ft | 447 kts | 311° |
| 2026-05-08 17:22 | 19.89885 | -71.61384 | 35537 ft | 452 kts | 311° |
| 2026-05-08 17:22 | 19.91944 | -71.63894 | 35897 ft | 448 kts | 311° |
| 2026-05-08 17:22 | 19.93988 | -71.66388 | 36138 ft | 447 kts | 311° |
| 2026-05-08 17:23 | 19.96032 | -71.68882 | 36333 ft | 448 kts | 311° |
| 2026-05-08 17:23 | 19.98053 | -71.71349 | 36471 ft | 449 kts | 311° |
| 2026-05-08 17:23 | 20.00127 | -71.73883 | 36719 ft | 447 kts | 311° |
| 2026-05-08 17:23 | 20.02142 | -71.76345 | 36900 ft | 448 kts | 311° |
| 2026-05-08 17:24 | 20.04189 | -71.78848 | 37072 ft | 448 kts | 311° |
| 2026-05-08 17:24 | 20.06224 | -71.81336 | 37353 ft | 446 kts | 311° |
| 2026-05-08 17:24 | 20.08261 | -71.83828 | 37525 ft | 446 kts | 311° |
| 2026-05-08 17:24 | 20.10289 | -71.86311 | 37765 ft | 444 kts | 311° |
| 2026-05-08 17:25 | 20.12315 | -71.88792 | 37920 ft | 444 kts | 311° |
| 2026-05-08 17:25 | 20.14330 | -71.91260 | 37981 ft | 439 kts | 311° |
| 2026-05-08 17:25 | 20.18337 | -71.96172 | 38019 ft | 442 kts | 311° |
| 2026-05-08 17:26 | 20.22388 | -72.01142 | 38023 ft | 446 kts | 311° |
| 2026-05-08 17:26 | 20.26449 | -72.06129 | 38016 ft | 446 kts | 311° |
| 2026-05-08 17:27 | 20.29822 | -72.10274 | 38019 ft | 446 kts | 311° |
| 2026-05-08 17:27 | 20.33880 | -72.15266 | 38029 ft | 445 kts | 311° |
| 2026-05-08 17:28 | 20.37931 | -72.20254 | 38026 ft | 445 kts | 311° |
| 2026-05-08 17:28 | 20.41760 | -72.25423 | 38020 ft | 445 kts | 301° |
| 2026-05-08 17:29 | 20.44334 | -72.31411 | 38028 ft | 445 kts | 292° |
| 2026-05-08 17:29 | 20.46628 | -72.37533 | 38023 ft | 444 kts | 292° |
| 2026-05-08 17:30 | 20.48937 | -72.43643 | 38019 ft | 444 kts | 292° |
| 2026-05-08 17:30 | 20.51268 | -72.49738 | 38024 ft | 444 kts | 293° |
| 2026-05-08 17:31 | 20.53609 | -72.55833 | 38020 ft | 444 kts | 293° |
| 2026-05-08 17:31 | 20.55947 | -72.61926 | 38022 ft | 444 kts | 293° |
| 2026-05-08 17:32 | 20.58285 | -72.68025 | 38014 ft | 444 kts | 293° |
| 2026-05-08 17:32 | 20.60618 | -72.74123 | 38022 ft | 444 kts | 293° |
| 2026-05-08 17:33 | 20.62952 | -72.80230 | 38018 ft | 444 kts | 293° |
| 2026-05-08 17:33 | 20.65284 | -72.86340 | 38018 ft | 444 kts | 293° |
| 2026-05-08 17:34 | 20.67614 | -72.92451 | 38023 ft | 445 kts | 293° |
| 2026-05-08 17:34 | 20.69944 | -72.98571 | 38028 ft | 445 kts | 293° |
| 2026-05-08 17:35 | 20.72272 | -73.04693 | 38023 ft | 445 kts | 293° |
| 2026-05-08 17:35 | 20.74599 | -73.10820 | 38022 ft | 445 kts | 293° |
| 2026-05-08 17:36 | 20.76910 | -73.16912 | 38017 ft | 445 kts | 293° |
| 2026-05-08 17:36 | 20.79233 | -73.23043 | 38020 ft | 445 kts | 293° |
| 2026-05-08 17:37 | 20.81554 | -73.29177 | 38019 ft | 445 kts | 293° |
| 2026-05-08 17:37 | 20.83873 | -73.35313 | 38018 ft | 445 kts | 293° |
| 2026-05-08 17:38 | 20.86188 | -73.41447 | 38017 ft | 445 kts | 293° |
| 2026-05-08 17:38 | 20.88501 | -73.47581 | 38016 ft | 445 kts | 293° |
| 2026-05-08 17:39 | 20.90810 | -73.53715 | 38020 ft | 445 kts | 292° |
| 2026-05-08 17:39 | 20.93117 | -73.59853 | 38021 ft | 445 kts | 293° |
| 2026-05-08 17:40 | 20.95423 | -73.65991 | 38017 ft | 445 kts | 292° |
| 2026-05-08 17:40 | 20.97651 | -73.72161 | 38015 ft | 445 kts | 291° |
| 2026-05-08 17:41 | 20.99747 | -73.78391 | 38018 ft | 445 kts | 290° |
| 2026-05-08 17:41 | 21.01838 | -73.84626 | 38028 ft | 445 kts | 290° |
| 2026-05-08 17:42 | 21.03943 | -73.90855 | 38019 ft | 445 kts | 290° |
| 2026-05-08 17:42 | 21.06053 | -73.97081 | 38024 ft | 445 kts | 290° |
| 2026-05-08 17:43 | 21.08160 | -74.03303 | 38023 ft | 444 kts | 290° |
| 2026-05-08 17:43 | 21.10264 | -74.09525 | 38026 ft | 444 kts | 290° |
| 2026-05-08 17:44 | 21.12364 | -74.15745 | 38024 ft | 444 kts | 290° |
| 2026-05-08 17:44 | 21.14460 | -74.21961 | 38024 ft | 444 kts | 290° |
| 2026-05-08 17:45 | 21.16556 | -74.28186 | 38024 ft | 444 kts | 290° |
| 2026-05-08 17:45 | 21.18646 | -74.34403 | 38026 ft | 444 kts | 290° |
| 2026-05-08 17:46 | 21.20735 | -74.40625 | 38022 ft | 444 kts | 290° |
| 2026-05-08 17:46 | 21.22824 | -74.46850 | 38022 ft | 444 kts | 290° |
| 2026-05-08 17:47 | 21.24906 | -74.53033 | 38027 ft | 444 kts | 290° |
| 2026-05-08 17:47 | 21.26661 | -74.58252 | 38024 ft | 444 kts | 290° |
| 2026-05-08 17:48 | 21.29093 | -74.65494 | 38024 ft | 445 kts | 290° |
| 2026-05-08 17:48 | 21.31185 | -74.71738 | 38022 ft | 445 kts | 290° |
| 2026-05-08 17:49 | 21.33275 | -74.77985 | 38022 ft | 445 kts | 290° |
| 2026-05-08 17:49 | 21.35363 | -74.84235 | 38025 ft | 445 kts | 290° |
| 2026-05-08 17:50 | 21.37451 | -74.90491 | 38030 ft | 446 kts | 290° |
| 2026-05-08 17:50 | 21.39538 | -74.96753 | 38030 ft | 446 kts | 290° |
| 2026-05-08 17:51 | 21.41622 | -75.03018 | 38042 ft | 446 kts | 290° |
| 2026-05-08 17:51 | 21.43704 | -75.09283 | 38022 ft | 446 kts | 290° |
| 2026-05-08 17:52 | 21.45783 | -75.15549 | 38028 ft | 446 kts | 290° |
| 2026-05-08 17:53 | 21.48899 | -75.24955 | 38020 ft | 446 kts | 290° |
| 2026-05-08 17:53 | 21.50972 | -75.31226 | 38022 ft | 446 kts | 290° |
| 2026-05-08 17:54 | 21.53044 | -75.37500 | 38026 ft | 446 kts | 290° |
| 2026-05-08 17:54 | 21.55113 | -75.43776 | 38025 ft | 446 kts | 290° |
| 2026-05-08 17:55 | 21.57179 | -75.50052 | 38024 ft | 445 kts | 290° |
| 2026-05-08 17:55 | 21.59228 | -75.56284 | 38030 ft | 445 kts | 290° |
| 2026-05-08 17:56 | 21.61301 | -75.62599 | 38026 ft | 445 kts | 290° |
| 2026-05-08 17:56 | 21.63345 | -75.68833 | 38027 ft | 445 kts | 290° |
| 2026-05-08 17:57 | 21.65400 | -75.75109 | 38024 ft | 445 kts | 290° |
| 2026-05-08 17:57 | 21.67451 | -75.81386 | 38032 ft | 445 kts | 290° |
| 2026-05-08 17:58 | 21.69499 | -75.87661 | 38026 ft | 445 kts | 290° |
| 2026-05-08 17:58 | 21.71545 | -75.93940 | 38023 ft | 445 kts | 290° |
| 2026-05-08 17:59 | 21.73589 | -76.00223 | 38030 ft | 445 kts | 290° |
| 2026-05-08 17:59 | 21.75630 | -76.06505 | 38032 ft | 445 kts | 290° |
| 2026-05-08 18:00 | 21.77669 | -76.12789 | 38035 ft | 445 kts | 290° |
| 2026-05-08 18:00 | 21.80721 | -76.22215 | 38027 ft | 445 kts | 290° |
| 2026-05-08 18:01 | 21.82751 | -76.28497 | 38033 ft | 445 kts | 290° |
| 2026-05-08 18:01 | 21.84781 | -76.34785 | 38021 ft | 445 kts | 290° |
| 2026-05-08 18:02 | 21.86466 | -76.40012 | 38021 ft | 445 kts | 290° |
| 2026-05-08 18:02 | 21.88832 | -76.47364 | 38024 ft | 445 kts | 290° |
| 2026-05-08 18:03 | 21.90852 | -76.53649 | 38035 ft | 444 kts | 290° |
| 2026-05-08 18:03 | 21.92870 | -76.59938 | 38022 ft | 444 kts | 290° |
| 2026-05-08 18:04 | 21.94883 | -76.66221 | 38028 ft | 443 kts | 290° |
| 2026-05-08 18:04 | 21.96891 | -76.72498 | 38035 ft | 443 kts | 290° |
| 2026-05-08 18:05 | 21.98895 | -76.78770 | 38027 ft | 442 kts | 290° |
| 2026-05-08 18:05 | 22.00894 | -76.85037 | 38036 ft | 442 kts | 290° |
| 2026-05-08 18:06 | 22.02888 | -76.91299 | 38034 ft | 442 kts | 289° |
| 2026-05-08 18:06 | 22.04879 | -76.97558 | 38018 ft | 441 kts | 289° |
| 2026-05-08 18:07 | 22.06867 | -77.03813 | 38023 ft | 441 kts | 289° |
| 2026-05-08 18:07 | 22.08841 | -77.10029 | 38024 ft | 441 kts | 289° |
| 2026-05-08 18:08 | 22.10823 | -77.16283 | 38029 ft | 441 kts | 289° |
| 2026-05-08 18:08 | 22.12803 | -77.22543 | 38037 ft | 441 kts | 289° |
| 2026-05-08 18:09 | 22.14781 | -77.28802 | 38025 ft | 441 kts | 289° |
| 2026-05-08 18:09 | 22.16760 | -77.35067 | 38035 ft | 441 kts | 289° |
| 2026-05-08 18:10 | 22.18740 | -77.41329 | 38025 ft | 441 kts | 289° |
| 2026-05-08 18:10 | 22.20719 | -77.47598 | 38032 ft | 441 kts | 289° |
| 2026-05-08 18:11 | 22.22694 | -77.53868 | 38023 ft | 441 kts | 289° |
| 2026-05-08 18:11 | 22.24668 | -77.60142 | 38031 ft | 441 kts | 289° |
| 2026-05-08 18:12 | 22.26639 | -77.66419 | 38030 ft | 441 kts | 289° |
| 2026-05-08 18:12 | 22.28607 | -77.72694 | 38027 ft | 441 kts | 289° |
| 2026-05-08 18:13 | 22.30572 | -77.78970 | 38032 ft | 441 kts | 289° |
| 2026-05-08 18:13 | 22.32533 | -77.85243 | 38040 ft | 441 kts | 289° |
| 2026-05-08 18:14 | 22.34161 | -77.90456 | 38021 ft | 441 kts | 289° |
| 2026-05-08 18:14 | 22.36115 | -77.96723 | 38011 ft | 440 kts | 289° |
| 2026-05-08 18:15 | 22.38050 | -78.02984 | 38020 ft | 439 kts | 289° |
| 2026-05-08 18:15 | 22.39971 | -78.09239 | 38019 ft | 438 kts | 289° |
| 2026-05-08 18:16 | 22.41887 | -78.15482 | 38027 ft | 437 kts | 289° |
| 2026-05-08 18:16 | 22.43799 | -78.21718 | 38016 ft | 437 kts | 289° |
| 2026-05-08 18:17 | 22.45707 | -78.27949 | 38024 ft | 436 kts | 289° |
| 2026-05-08 18:17 | 22.47399 | -78.34240 | 38030 ft | 436 kts | 283° |
| 2026-05-08 18:18 | 22.48582 | -78.40632 | 38030 ft | 437 kts | 282° |
| 2026-05-08 18:18 | 22.49722 | -78.47081 | 38020 ft | 437 kts | 282° |
| 2026-05-08 18:19 | 22.50897 | -78.53524 | 38026 ft | 437 kts | 282° |
| 2026-05-08 18:19 | 22.52095 | -78.59968 | 38023 ft | 437 kts | 282° |
| 2026-05-08 18:20 | 22.53299 | -78.66418 | 38018 ft | 438 kts | 282° |
| 2026-05-08 18:20 | 22.54501 | -78.72878 | 38015 ft | 438 kts | 282° |
| 2026-05-08 18:21 | 22.55702 | -78.79343 | 38013 ft | 439 kts | 282° |
| 2026-05-08 18:21 | 22.56900 | -78.85816 | 38031 ft | 439 kts | 282° |
| 2026-05-08 18:22 | 22.58096 | -78.92295 | 38019 ft | 439 kts | 282° |
| 2026-05-08 18:22 | 22.59291 | -78.98780 | 38026 ft | 440 kts | 282° |
| 2026-05-08 18:23 | 22.60484 | -79.05268 | 38029 ft | 440 kts | 282° |
| 2026-05-08 18:23 | 22.61675 | -79.11763 | 38019 ft | 440 kts | 282° |
| 2026-05-08 18:24 | 22.62862 | -79.18251 | 38026 ft | 440 kts | 282° |
| 2026-05-08 18:24 | 22.64047 | -79.24745 | 38020 ft | 440 kts | 282° |
| 2026-05-08 18:25 | 22.65229 | -79.31237 | 38013 ft | 439 kts | 282° |
| 2026-05-08 18:25 | 22.66408 | -79.37722 | 38018 ft | 439 kts | 282° |
| 2026-05-08 18:26 | 22.67583 | -79.44209 | 38022 ft | 439 kts | 282° |
| 2026-05-08 18:26 | 22.68755 | -79.50692 | 38014 ft | 438 kts | 282° |
| 2026-05-08 18:27 | 22.69726 | -79.56076 | 38016 ft | 438 kts | 282° |
| 2026-05-08 18:27 | 22.71089 | -79.63649 | 38021 ft | 438 kts | 282° |
| 2026-05-08 18:28 | 22.72252 | -79.70125 | 38018 ft | 438 kts | 282° |
| 2026-05-08 18:28 | 22.73407 | -79.76598 | 38008 ft | 438 kts | 282° |
| 2026-05-08 18:29 | 22.74550 | -79.83030 | 38028 ft | 438 kts | 282° |
| 2026-05-08 18:29 | 22.75697 | -79.89502 | 38007 ft | 437 kts | 282° |
| 2026-05-08 18:30 | 22.76842 | -79.95971 | 38015 ft | 437 kts | 282° |
| 2026-05-08 18:30 | 22.77989 | -80.02471 | 37513 ft | 444 kts | 282° |
| 2026-05-08 18:31 | 22.78566 | -80.05743 | 36972 ft | 441 kts | 282° |
| 2026-05-08 18:31 | 22.79140 | -80.09005 | 36411 ft | 440 kts | 282° |
| 2026-05-08 18:31 | 22.79712 | -80.12262 | 35804 ft | 440 kts | 282° |
| 2026-05-08 18:31 | 22.80284 | -80.15519 | 35160 ft | 441 kts | 281° |
| 2026-05-08 18:32 | 22.80857 | -80.18790 | 34471 ft | 443 kts | 281° |
| 2026-05-08 18:32 | 22.81433 | -80.22077 | 33744 ft | 445 kts | 281° |
| 2026-05-08 18:32 | 22.82010 | -80.25381 | 32993 ft | 446 kts | 281° |
| 2026-05-08 18:32 | 22.82585 | -80.28673 | 32494 ft | 442 kts | 281° |
| 2026-05-08 18:33 | 22.83154 | -80.31934 | 31983 ft | 438 kts | 281° |
| 2026-05-08 18:33 | 22.83717 | -80.35165 | 31495 ft | 435 kts | 281° |
| 2026-05-08 18:33 | 22.84274 | -80.38367 | 31014 ft | 431 kts | 281° |
| 2026-05-08 18:33 | 22.84827 | -80.41549 | 30538 ft | 428 kts | 280° |
| 2026-05-08 18:34 | 22.85375 | -80.44705 | 30054 ft | 425 kts | 280° |
| 2026-05-08 18:34 | 22.85918 | -80.47843 | 29488 ft | 422 kts | 280° |
| 2026-05-08 18:34 | 22.86456 | -80.50950 | 28969 ft | 418 kts | 280° |
| 2026-05-08 18:34 | 22.86989 | -80.54030 | 28466 ft | 413 kts | 280° |
| 2026-05-08 18:35 | 22.87515 | -80.57075 | 28004 ft | 409 kts | 280° |
| 2026-05-08 18:35 | 22.88034 | -80.60087 | 27518 ft | 405 kts | 281° |
| 2026-05-08 18:35 | 22.88549 | -80.63075 | 27046 ft | 401 kts | 281° |
| 2026-05-08 18:35 | 22.89059 | -80.66035 | 26581 ft | 398 kts | 281° |
| 2026-05-08 18:36 | 22.89563 | -80.68971 | 26115 ft | 395 kts | 281° |
| 2026-05-08 18:36 | 22.90064 | -80.71888 | 25660 ft | 392 kts | 281° |
| 2026-05-08 18:36 | 22.90560 | -80.74782 | 25200 ft | 389 kts | 281° |
| 2026-05-08 18:36 | 22.91053 | -80.77657 | 24733 ft | 387 kts | 281° |
| 2026-05-08 18:37 | 22.91544 | -80.80523 | 24263 ft | 385 kts | 281° |
| 2026-05-08 18:37 | 22.92031 | -80.83375 | 23802 ft | 384 kts | 281° |
| 2026-05-08 18:37 | 22.92516 | -80.86215 | 23297 ft | 382 kts | 281° |
| 2026-05-08 18:37 | 22.92998 | -80.89037 | 22795 ft | 379 kts | 281° |
| 2026-05-08 18:38 | 22.93475 | -80.91841 | 22333 ft | 377 kts | 281° |
| 2026-05-08 18:38 | 22.93943 | -80.94586 | 21877 ft | 374 kts | 281° |
| 2026-05-08 18:38 | 22.94413 | -80.97350 | 21428 ft | 371 kts | 281° |
| 2026-05-08 18:38 | 22.94879 | -81.00096 | 20979 ft | 369 kts | 281° |
| 2026-05-08 18:39 | 22.95343 | -81.02831 | 20539 ft | 367 kts | 281° |
| 2026-05-08 18:39 | 22.95803 | -81.05548 | 20098 ft | 366 kts | 281° |
| 2026-05-08 18:39 | 22.96262 | -81.08255 | 19671 ft | 364 kts | 281° |
| 2026-05-08 18:39 | 22.96719 | -81.10959 | 19202 ft | 364 kts | 282° |
| 2026-05-08 18:40 | 22.97175 | -81.13656 | 18761 ft | 364 kts | 281° |
| 2026-05-08 18:40 | 22.97630 | -81.16355 | 18301 ft | 364 kts | 281° |
| 2026-05-08 18:40 | 22.98086 | -81.19055 | 17805 ft | 364 kts | 281° |
| 2026-05-08 18:40 | 22.98539 | -81.21749 | 17359 ft | 362 kts | 281° |
| 2026-05-08 18:41 | 22.98991 | -81.24433 | 16915 ft | 361 kts | 281° |
| 2026-05-08 18:41 | 22.99440 | -81.27104 | 16479 ft | 359 kts | 280° |
| 2026-05-08 18:41 | 22.99887 | -81.29770 | 16030 ft | 359 kts | 280° |
| 2026-05-08 18:41 | 23.00332 | -81.32426 | 15587 ft | 358 kts | 279° |
| 2026-05-08 18:42 | 23.00778 | -81.35084 | 15140 ft | 358 kts | 279° |
| 2026-05-08 18:42 | 23.01222 | -81.37740 | 14696 ft | 358 kts | 279° |
| 2026-05-08 18:42 | 23.01666 | -81.40393 | 14246 ft | 358 kts | 278° |
| 2026-05-08 18:42 | 23.02109 | -81.43051 | 13797 ft | 358 kts | 278° |
| 2026-05-08 18:43 | 23.02543 | -81.45704 | 13329 ft | 356 kts | 276° |
| 2026-05-08 18:43 | 23.02796 | -81.48359 | 12983 ft | 350 kts | 272° |
| 2026-05-08 18:43 | 23.02919 | -81.50995 | 12503 ft | 350 kts | 271° |
| 2026-05-08 18:43 | 23.03008 | -81.53630 | 12088 ft | 349 kts | 270° |
| 2026-05-08 18:44 | 23.03098 | -81.56253 | 11677 ft | 346 kts | 270° |
| 2026-05-08 18:44 | 23.03196 | -81.58865 | 11229 ft | 345 kts | 271° |
| 2026-05-08 18:44 | 23.03304 | -81.61458 | 10886 ft | 342 kts | 271° |
| 2026-05-08 18:44 | 23.03418 | -81.64001 | 10751 ft | 331 kts | 271° |
| 2026-05-08 18:45 | 23.03530 | -81.66429 | 10661 ft | 313 kts | 271° |
| 2026-05-08 18:45 | 23.03639 | -81.68728 | 10531 ft | 297 kts | 270° |
| 2026-05-08 18:45 | 23.03742 | -81.70905 | 10446 ft | 282 kts | 271° |
| 2026-05-08 18:45 | 23.03840 | -81.72977 | 10371 ft | 268 kts | 271° |
| 2026-05-08 18:46 | 23.03935 | -81.74980 | 10041 ft | 264 kts | 271° |
| 2026-05-08 18:46 | 23.04027 | -81.76936 | 9563 ft | 264 kts | 270° |
| 2026-05-08 18:46 | 23.04119 | -81.78924 | 9117 ft | 261 kts | 270° |
| 2026-05-08 18:46 | 23.04211 | -81.80881 | 8623 ft | 261 kts | 270° |
| 2026-05-08 18:47 | 23.04303 | -81.82834 | 8304 ft | 255 kts | 271° |
| 2026-05-08 18:47 | 23.04393 | -81.84755 | 8003 ft | 255 kts | 270° |
| 2026-05-08 18:47 | 23.04482 | -81.86677 | 7749 ft | 255 kts | 270° |
| 2026-05-08 18:47 | 23.04570 | -81.88597 | 7491 ft | 255 kts | 271° |
| 2026-05-08 18:48 | 23.04660 | -81.90519 | 7223 ft | 255 kts | 270° |
| 2026-05-08 18:48 | 23.04749 | -81.92441 | 6969 ft | 252 kts | 270° |
| 2026-05-08 18:48 | 23.04836 | -81.94293 | 6728 ft | 239 kts | 271° |
| 2026-05-08 18:48 | 23.04919 | -81.96062 | 6486 ft | 231 kts | 270° |
| 2026-05-08 18:49 | 23.04999 | -81.97769 | 6229 ft | 222 kts | 271° |
| 2026-05-08 18:49 | 23.05076 | -81.99423 | 5991 ft | 218 kts | 270° |
| 2026-05-08 18:49 | 23.05148 | -82.01071 | 5763 ft | 219 kts | 269° |
| 2026-05-08 18:49 | 23.05222 | -82.02713 | 5541 ft | 217 kts | 270° |
| 2026-05-08 18:50 | 23.05296 | -82.04339 | 5320 ft | 215 kts | 269° |
| 2026-05-08 18:50 | 23.05367 | -82.05953 | 5100 ft | 213 kts | 269° |
| 2026-05-08 18:50 | 23.05443 | -82.07562 | 4879 ft | 215 kts | 269° |
| 2026-05-08 18:50 | 23.05516 | -82.09194 | 4676 ft | 218 kts | 269° |
| 2026-05-08 18:51 | 23.05592 | -82.10843 | 4436 ft | 219 kts | 272° |
| 2026-05-08 18:51 | 23.05967 | -82.12428 | 4271 ft | 216 kts | 292° |
| 2026-05-08 18:51 | 23.06592 | -82.13901 | 4182 ft | 216 kts | 292° |
| 2026-05-08 18:51 | 23.07201 | -82.15406 | 4117 ft | 220 kts | 291° |
| 2026-05-08 18:52 | 23.07808 | -82.16940 | 4022 ft | 222 kts | 291° |
| 2026-05-08 18:52 | 23.08409 | -82.18476 | 3895 ft | 220 kts | 291° |
| 2026-05-08 18:52 | 23.08998 | -82.19991 | 3784 ft | 215 kts | 292° |
| 2026-05-08 18:52 | 23.09580 | -82.21478 | 3617 ft | 214 kts | 291° |
| 2026-05-08 18:53 | 23.10047 | -82.23008 | 3406 ft | 213 kts | 274° |
| 2026-05-08 18:53 | 23.09684 | -82.24507 | 3200 ft | 205 kts | 231° |
| 2026-05-08 18:53 | 23.08840 | -82.25756 | 3021 ft | 207 kts | 232° |
| 2026-05-08 18:53 | 23.08012 | -82.27040 | 2803 ft | 208 kts | 232° |
| 2026-05-08 18:54 | 23.07184 | -82.28334 | 2610 ft | 208 kts | 232° |
| 2026-05-08 18:54 | 23.06362 | -82.29616 | 2347 ft | 204 kts | 234° |
| 2026-05-08 18:54 | 23.05567 | -82.30857 | 2069 ft | 194 kts | 234° |
| 2026-05-08 18:54 | 23.04813 | -82.32014 | 1852 ft | 185 kts | 233° |
| 2026-05-08 18:55 | 23.03336 | -82.34238 | 1350 ft | 176 kts | 234° |
| 2026-05-08 18:55 | 23.02659 | -82.35257 | 1100 ft | 161 kts | 233° |
| 2026-05-08 18:55 | 23.02049 | -82.36177 | 967 ft | 144 kts | 234° |
| 2026-05-08 18:56 | 23.01468 | -82.37052 | 764 ft | 139 kts | 234° |
| 2026-05-08 18:56 | 23.00900 | -82.37907 | 594 ft | 140 kts | 235° |
| 2026-05-08 18:56 | 23.00325 | -82.38777 | 440 ft | 149 kts | 235° |
| 2026-05-08 18:56 | 22.99732 | -82.39678 | 240 ft | 137 kts | 234° |
| 2026-05-08 18:57 | 22.99238 | -82.40415 | 217 ft | 86 kts | 234° |
| 2026-05-08 18:57 | 22.99096 | -82.40630 | 219 ft | 25 kts | 235° |
| 2026-05-08 18:57 | 22.98968 | -82.40828 | 219 ft | 23 kts | 234° |
| 2026-05-08 18:57 | 22.98872 | -82.40972 | 216 ft | 25 kts | 234° |
| 2026-05-08 18:58 | 22.98761 | -82.41139 | 216 ft | 29 kts | 234° |
| 2026-05-08 18:58 | 22.98632 | -82.41333 | 220 ft | 33 kts | 234° |
| 2026-05-08 18:58 | 22.98493 | -82.41543 | 216 ft | 36 kts | 234° |
| 2026-05-08 18:58 | 22.98339 | -82.41774 | 216 ft | 39 kts | 234° |
| 2026-05-08 18:59 | 22.98206 | -82.41975 | 216 ft | 29 kts | 233° |
| 2026-05-08 18:59 | 22.98150 | -82.42061 | 218 ft | 15 kts | 246° |
| 2026-05-08 18:59 | 22.98197 | -82.42141 | 222 ft | 1 kts | 325° |
| 2026-05-08 18:59 | 22.98227 | -82.42162 | 216 ft | 9 kts | 328° |
| 2026-05-08 19:00 | 22.98275 | -82.42176 | 216 ft | 13 kts | 11° |
| 2026-05-08 19:00 | 22.98369 | -82.42052 | 220 ft | 20 kts | 54° |
| 2026-05-08 19:00 | 22.98442 | -82.41953 | 218 ft | 9 kts | 19° |
| 2026-05-08 19:00 | 22.98496 | -82.41969 | 217 ft | 3 kts | 0° |
| 2026-05-08 19:01 | 22.98500 | -82.41968 | 217 ft | 0 kts | 15° |